Time;durP1;ratioP1;P1;durP2;ratioP2;P2;SDS_P1;SDS_P2;PMS_P1;PMS_P2;Temp;Humidity;BMP_temperature;BMP_pressure;BME280_temperature;BME280_humidity;BME280_pressure;Samples;Min_cycle;Max_cycle;Signal;HPM_P1;HPM_P2
2023/08/25 00:00:27;;;;;;;17.35;12.68;;;;;;;;;;5009104;28;20038;-58
2023/08/25 00:02:52;;;;;;;16.15;13.13;;;;;;;;;;5002710;28;20034;-57
2023/08/25 00:05:18;;;;;;;18.27;13.53;;;;;;;;;;5006946;28;20480;-58
2023/08/25 00:07:43;;;;;;;17.07;12.77;;;;;;;;;;5023450;28;20292;-58
2023/08/25 00:10:08;;;;;;;15.63;12.27;;;;;;;;;;5023194;28;20462;-58
2023/08/25 00:12:33;;;;;;;16.92;13.95;;;;;;;;;;5023376;28;20280;-57
2023/08/25 00:14:59;;;;;;;15.43;13.20;;;;;;;;;;5011868;28;20431;-61
2023/08/25 00:17:24;;;;;;;16.80;12.87;;;;;;;;;;4986212;28;20265;-57
2023/08/25 00:19:49;;;;;;;19.40;13.83;;;;;;;;;;5003569;28;20343;-58
2023/08/25 00:22:14;;;;;;;15.97;13.47;;;;;;;;;;5003542;28;20805;-57
2023/08/25 00:24:39;;;;;;;17.03;13.47;;;;;;;;;;5015590;28;20323;-60
2023/08/25 00:27:05;;;;;;;19.23;13.67;;;;;;;;;;5007609;28;20130;-58
2023/08/25 00:29:30;;;;;;;18.05;13.77;;;;;;;;;;5003331;28;20311;-58
2023/08/25 00:31:55;;;;;;;18.30;14.20;;;;;;;;;;5003559;28;20092;-57
2023/08/25 00:34:20;;;;;;;17.73;12.70;;;;;;;;;;4985122;28;20288;-57
2023/08/25 00:36:46;;;;;;;16.48;12.88;;;;;;;;;;4985603;28;20285;-58
2023/08/25 00:39:11;;;;;;;16.95;13.57;;;;;;;;;;4986012;28;20074;-58
2023/08/25 00:41:36;;;;;;;17.40;13.40;;;;;;;;;;5009541;28;20053;-58
2023/08/25 00:44:02;;;;;;;16.42;13.20;;;;;;;;;;5010959;28;20292;-58
2023/08/25 00:46:27;;;;;;;15.48;12.70;;;;;;;;;;5014136;28;20474;-58
2023/08/25 00:48:53;;;;;;;15.45;12.98;;;;;;;;;;5037532;28;20125;-58
2023/08/25 00:51:18;;;;;;;16.83;13.73;;;;;;;;;;5022912;28;20049;-57
2023/08/25 00:53:43;;;;;;;19.00;13.30;;;;;;;;;;5009567;28;20785;-58
2023/08/25 00:56:09;;;;;;;16.37;13.43;;;;;;;;;;5002905;28;20404;-57
2023/08/25 00:58:34;;;;;;;17.20;13.07;;;;;;;;;;4996832;28;20446;-57
2023/08/25 01:01:01;;;;;;;17.40;14.07;;;;;;;;;;5022407;28;20312;-57
2023/08/25 01:03:27;;;;;;;15.98;13.40;;;;;;;;;;5025743;28;20284;-57
2023/08/25 01:05:52;;;;;;;16.38;13.52;;;;;;;;;;5026282;28;20033;-57
2023/08/25 01:08:17;;;;;;;17.45;14.15;;;;;;;;;;5007326;28;20096;-58
2023/08/25 01:11:01;;;;;;;18.40;12.68;;;;;;;;;;4989413;28;20082;-58
2023/08/25 01:13:30;;;;;;;15.77;13.13;;;;;;;;;;4991373;28;20065;-59
2023/08/25 01:15:55;;;;;;;16.33;13.10;;;;;;;;;;5031214;28;20025;-58
2023/08/25 01:18:23;;;;;;;15.80;13.37;;;;;;;;;;5006753;28;20018;-57
2023/08/25 01:20:48;;;;;;;16.30;12.50;;;;;;;;;;5006921;28;20356;-58
2023/08/25 01:23:19;;;;;;;18.63;13.70;;;;;;;;;;5006674;28;20034;-58
2023/08/25 01:25:50;;;;;;;15.63;12.55;;;;;;;;;;5010045;28;20276;-58
2023/08/25 01:28:17;;;;;;;17.08;12.98;;;;;;;;;;5015393;28;20037;-60
2023/08/25 01:30:44;;;;;;;17.05;13.35;;;;;;;;;;5041316;28;20103;-58
2023/08/25 01:33:10;;;;;;;16.52;14.30;;;;;;;;;;5026137;28;20044;-57
2023/08/25 01:35:47;;;;;;;15.88;12.70;;;;;;;;;;5003258;28;20093;-58
2023/08/25 01:38:20;;;;;;;16.95;13.73;;;;;;;;;;4988401;28;20065;-58
2023/08/25 01:40:49;;;;;;;17.65;14.10;;;;;;;;;;4988630;28;20054;-58
2023/08/25 01:43:15;;;;;;;19.52;15.02;;;;;;;;;;5006609;28;20675;-58
2023/08/25 01:45:40;;;;;;;19.27;14.73;;;;;;;;;;5001691;28;20089;-58
2023/08/25 01:48:06;;;;;;;17.93;14.20;;;;;;;;;;5004329;28;20037;-58
2023/08/25 01:50:32;;;;;;;17.42;14.50;;;;;;;;;;5040808;28;20049;-59
2023/08/25 01:52:57;;;;;;;16.65;13.40;;;;;;;;;;5025762;28;20095;-57
2023/08/25 01:55:22;;;;;;;17.70;14.10;;;;;;;;;;5023859;28;20470;-57
2023/08/25 01:57:48;;;;;;;17.50;14.00;;;;;;;;;;4993363;28;20288;-57
2023/08/25 02:00:13;;;;;;;18.50;14.20;;;;;;;;;;4994809;28;20297;-57
2023/08/25 02:02:38;;;;;;;17.17;14.50;;;;;;;;;;4988357;28;20121;-58
2023/08/25 02:05:04;;;;;;;19.47;14.77;;;;;;;;;;4987888;28;20025;-57
2023/08/25 02:07:29;;;;;;;17.17;13.88;;;;;;;;;;5015780;28;20411;-57
2023/08/25 02:09:55;;;;;;;16.47;13.57;;;;;;;;;;5025841;28;20036;-58
2023/08/25 02:12:20;;;;;;;17.85;13.57;;;;;;;;;;5025516;28;20306;-58
2023/08/25 02:14:45;;;;;;;15.00;13.20;;;;;;;;;;5018444;28;20029;-57
2023/08/25 02:17:11;;;;;;;16.45;13.90;;;;;;;;;;5010110;28;20109;-57
2023/08/25 02:19:36;;;;;;;17.43;14.17;;;;;;;;;;4987576;28;20120;-57
2023/08/25 02:22:01;;;;;;;17.40;13.50;;;;;;;;;;4971967;28;20320;-58
2023/08/25 02:24:26;;;;;;;17.33;14.37;;;;;;;;;;5005595;28;20293;-58
2023/08/25 02:26:51;;;;;;;18.52;13.55;;;;;;;;;;5007745;28;20371;-58
2023/08/25 02:29:17;;;;;;;17.83;14.20;;;;;;;;;;5025009;28;20499;-58
2023/08/25 02:31:42;;;;;;;17.97;13.87;;;;;;;;;;5025270;28;20268;-57
2023/08/25 02:34:07;;;;;;;15.67;13.47;;;;;;;;;;4997647;28;20377;-58
2023/08/25 02:36:32;;;;;;;19.00;14.55;;;;;;;;;;5005147;28;20113;-58
2023/08/25 02:38:58;;;;;;;17.10;14.68;;;;;;;;;;5007025;28;20053;-58
2023/08/25 02:41:23;;;;;;;18.40;14.40;;;;;;;;;;5007204;28;20049;-58
2023/08/25 02:43:48;;;;;;;21.10;15.03;;;;;;;;;;5024535;28;20040;-58
2023/08/25 02:46:13;;;;;;;18.87;14.27;;;;;;;;;;5006213;28;20673;-58
2023/08/25 02:48:39;;;;;;;16.37;13.97;;;;;;;;;;5007540;28;20460;-60
2023/08/25 02:51:04;;;;;;;15.70;13.60;;;;;;;;;;5005756;28;21011;-58
2023/08/25 02:53:29;;;;;;;16.87;13.87;;;;;;;;;;5005310;28;20316;-58
2023/08/25 02:55:54;;;;;;;17.13;13.70;;;;;;;;;;4989408;28;20296;-58
2023/08/25 02:58:19;;;;;;;16.23;13.67;;;;;;;;;;5005272;28;20603;-57
2023/08/25 03:00:45;;;;;;;16.77;13.27;;;;;;;;;;4994926;28;20065;-58
2023/08/25 03:03:10;;;;;;;15.40;13.30;;;;;;;;;;5028254;28;20724;-58
2023/08/25 03:05:37;;;;;;;18.43;13.77;;;;;;;;;;5006703;28;20292;-58
2023/08/25 03:08:04;;;;;;;16.05;13.82;;;;;;;;;;5016836;28;20052;-58
2023/08/25 03:10:29;;;;;;;15.77;14.13;;;;;;;;;;5007574;28;20697;-57
2023/08/25 03:12:55;;;;;;;15.77;13.67;;;;;;;;;;5025066;28;20056;-58
2023/08/25 03:15:20;;;;;;;16.80;13.93;;;;;;;;;;5006319;28;20643;-58
2023/08/25 03:17:45;;;;;;;19.40;14.80;;;;;;;;;;5016046;28;20037;-57
2023/08/25 03:20:11;;;;;;;15.77;13.30;;;;;;;;;;5024324;28;20304;-58
2023/08/25 03:22:36;;;;;;;18.23;14.27;;;;;;;;;;5024279;28;20038;-58
2023/08/25 03:25:01;;;;;;;17.80;14.03;;;;;;;;;;5023203;28;20527;-58
2023/08/25 03:27:28;;;;;;;15.52;13.88;;;;;;;;;;5023305;28;20387;-57
2023/08/25 03:29:53;;;;;;;18.63;14.15;;;;;;;;;;5024287;28;20132;-58
2023/08/25 03:32:18;;;;;;;17.60;14.63;;;;;;;;;;5023794;28;20034;-57
2023/08/25 03:34:43;;;;;;;16.80;14.43;;;;;;;;;;5014018;28;20049;-57
2023/08/25 03:37:11;;;;;;;21.43;15.13;;;;;;;;;;4987022;28;20058;-58
2023/08/25 03:39:37;;;;;;;18.02;14.13;;;;;;;;;;5024191;28;21049;-58
2023/08/25 03:42:02;;;;;;;17.10;14.35;;;;;;;;;;5024188;28;20060;-57
2023/08/25 03:44:28;;;;;;;17.45;14.63;;;;;;;;;;5023601;28;20124;-58
2023/08/25 03:46:53;;;;;;;18.23;14.68;;;;;;;;;;5017987;28;20044;-58
2023/08/25 03:49:18;;;;;;;17.90;14.57;;;;;;;;;;5008815;28;20034;-57
2023/08/25 03:51:43;;;;;;;17.97;14.50;;;;;;;;;;5023404;28;20422;-57
2023/08/25 03:54:10;;;;;;;18.45;14.98;;;;;;;;;;5019642;28;20300;-57
2023/08/25 03:56:35;;;;;;;17.75;15.35;;;;;;;;;;5004135;28;20124;-58
2023/08/25 03:59:00;;;;;;;17.60;13.87;;;;;;;;;;5015230;28;20468;-58
2023/08/25 04:01:25;;;;;;;18.07;14.40;;;;;;;;;;4992339;28;20815;-58
2023/08/25 04:03:51;;;;;;;17.83;14.33;;;;;;;;;;4984614;28;20639;-59
2023/08/25 04:06:16;;;;;;;19.37;14.07;;;;;;;;;;5011133;28;20606;-57
2023/08/25 04:08:41;;;;;;;17.87;15.03;;;;;;;;;;4995443;28;20586;-57
2023/08/25 04:11:06;;;;;;;18.67;14.57;;;;;;;;;;5023528;28;20721;-57
2023/08/25 04:13:32;;;;;;;22.50;15.70;;;;;;;;;;5023886;28;20493;-57
2023/08/25 04:15:57;;;;;;;18.15;14.80;;;;;;;;;;4988988;28;20197;-57
2023/08/25 04:18:22;;;;;;;18.30;13.93;;;;;;;;;;5003457;28;20108;-58
2023/08/25 04:20:48;;;;;;;18.08;14.55;;;;;;;;;;5005477;28;20452;-57
2023/08/25 04:23:13;;;;;;;19.80;15.90;;;;;;;;;;5022360;28;20041;-58
2023/08/25 04:25:38;;;;;;;18.87;15.10;;;;;;;;;;5022706;28;20276;-59
2023/08/25 04:28:04;;;;;;;20.08;15.18;;;;;;;;;;4997725;28;20782;-58
2023/08/25 04:30:29;;;;;;;18.30;15.23;;;;;;;;;;5023208;28;20034;-58
2023/08/25 04:32:54;;;;;;;18.60;13.52;;;;;;;;;;5023081;28;20570;-58
2023/08/25 04:35:19;;;;;;;18.52;14.65;;;;;;;;;;5024214;28;20026;-58
2023/08/25 04:37:47;;;;;;;17.43;13.53;;;;;;;;;;5017927;28;20052;-58
2023/08/25 04:40:15;;;;;;;20.23;15.57;;;;;;;;;;5005994;28;20332;-58
2023/08/25 04:42:41;;;;;;;19.75;14.88;;;;;;;;;;4997255;28;20801;-58
2023/08/25 04:45:06;;;;;;;18.83;14.27;;;;;;;;;;4995698;28;20103;-58
2023/08/25 04:47:32;;;;;;;17.52;14.05;;;;;;;;;;4990702;28;20045;-59
2023/08/25 04:49:57;;;;;;;17.90;14.17;;;;;;;;;;4994376;28;20053;-58
2023/08/25 04:52:23;;;;;;;18.45;14.93;;;;;;;;;;5007704;28;20293;-58
2023/08/25 04:54:48;;;;;;;21.20;14.82;;;;;;;;;;5006346;28;20412;-57
2023/08/25 04:57:13;;;;;;;20.45;15.70;;;;;;;;;;4989776;28;20625;-62
2023/08/25 04:59:39;;;;;;;18.60;15.10;;;;;;;;;;4999904;28;20033;-60
2023/08/25 05:02:04;;;;;;;20.48;15.30;;;;;;;;;;4994750;28;20409;-58
2023/08/25 05:04:29;;;;;;;20.70;15.60;;;;;;;;;;4995696;28;20034;-57
2023/08/25 05:06:55;;;;;;;18.80;14.63;;;;;;;;;;4995361;28;21330;-59
2023/08/25 05:09:20;;;;;;;19.17;15.57;;;;;;;;;;4997914;28;20289;-58
2023/08/25 05:11:45;;;;;;;19.65;15.55;;;;;;;;;;4978306;28;20375;-59
2023/08/25 05:14:11;;;;;;;21.50;15.63;;;;;;;;;;4996012;28;20092;-57
2023/08/25 05:16:37;;;;;;;21.23;16.70;;;;;;;;;;4998328;28;20030;-60
2023/08/25 05:19:02;;;;;;;20.23;16.40;;;;;;;;;;4996641;28;20057;-58
2023/08/25 05:21:27;;;;;;;20.90;15.80;;;;;;;;;;4993271;28;20313;-58
2023/08/25 05:24:12;;;;;;;20.10;15.20;;;;;;;;;;4995156;28;20041;-59
2023/08/25 05:26:38;;;;;;;19.60;16.17;;;;;;;;;;4996007;28;20046;-57
2023/08/25 05:29:03;;;;;;;19.65;15.27;;;;;;;;;;4995109;28;20537;-58
2023/08/25 05:31:28;;;;;;;20.35;16.33;;;;;;;;;;4991990;28;20037;-59
2023/08/25 05:33:53;;;;;;;19.20;15.57;;;;;;;;;;4978026;28;20037;-59
2023/08/25 05:36:19;;;;;;;19.37;15.50;;;;;;;;;;4994044;28;20296;-58
2023/08/25 05:38:44;;;;;;;20.03;15.57;;;;;;;;;;4990504;28;20801;-58
2023/08/25 05:41:10;;;;;;;19.70;15.20;;;;;;;;;;4973875;28;20058;-59
2023/08/25 05:43:35;;;;;;;20.90;16.20;;;;;;;;;;4992933;28;20971;-62
2023/08/25 05:46:00;;;;;;;21.13;15.07;;;;;;;;;;4973621;28;20516;-59
2023/08/25 05:48:25;;;;;;;23.75;16.30;;;;;;;;;;4992568;28;20347;-58
2023/08/25 05:50:50;;;;;;;26.83;21.20;;;;;;;;;;4992528;28;20042;-58
2023/08/25 05:53:16;;;;;;;23.90;18.77;;;;;;;;;;4991357;28;20093;-59
2023/08/25 05:55:41;;;;;;;23.03;16.63;;;;;;;;;;4991594;28;20309;-58
2023/08/25 05:58:07;;;;;;;21.15;15.68;;;;;;;;;;4997695;28;20292;-58
2023/08/25 06:00:32;;;;;;;21.23;16.33;;;;;;;;;;4991959;28;20137;-58
2023/08/25 06:02:57;;;;;;;20.98;15.93;;;;;;;;;;5005271;28;20085;-58
2023/08/25 06:05:22;;;;;;;23.07;16.27;;;;;;;;;;4993607;28;20042;-57
2023/08/25 06:07:48;;;;;;;21.50;16.60;;;;;;;;;;5003023;28;20050;-58
2023/08/25 06:10:13;;;;;;;22.60;16.27;;;;;;;;;;4993169;28;20188;-58
2023/08/25 06:12:38;;;;;;;21.55;16.73;;;;;;;;;;4995883;28;20659;-57
2023/08/25 06:15:04;;;;;;;22.57;16.37;;;;;;;;;;4990469;28;20057;-58
2023/08/25 06:17:29;;;;;;;21.08;16.42;;;;;;;;;;4989510;28;20085;-57
2023/08/25 06:19:54;;;;;;;23.10;17.00;;;;;;;;;;4988735;28;20026;-59
2023/08/25 06:22:20;;;;;;;20.50;16.10;;;;;;;;;;4990264;28;21068;-60
2023/08/25 06:24:45;;;;;;;21.13;16.55;;;;;;;;;;4992779;28;20324;-60
2023/08/25 06:27:11;;;;;;;20.15;16.42;;;;;;;;;;4988557;28;20233;-59
2023/08/25 06:29:36;;;;;;;20.60;15.50;;;;;;;;;;5003441;28;20496;-58
2023/08/25 06:32:01;;;;;;;20.63;15.13;;;;;;;;;;4993785;28;20483;-61
2023/08/25 06:34:27;;;;;;;21.13;14.87;;;;;;;;;;4998489;28;20480;-58
2023/08/25 06:36:52;;;;;;;21.70;15.80;;;;;;;;;;4996491;28;20563;-59
2023/08/25 06:39:17;;;;;;;19.55;14.50;;;;;;;;;;5006850;28;20491;-59
2023/08/25 06:41:43;;;;;;;20.60;14.95;;;;;;;;;;4979453;28;20077;-58
2023/08/25 06:44:08;;;;;;;19.33;14.57;;;;;;;;;;4992863;28;20026;-57
2023/08/25 06:46:33;;;;;;;17.60;14.07;;;;;;;;;;4979040;28;20038;-59
2023/08/25 06:48:58;;;;;;;19.67;14.83;;;;;;;;;;4992725;28;20086;-59
2023/08/25 06:51:24;;;;;;;21.33;13.77;;;;;;;;;;4991380;28;20403;-58
2023/08/25 06:53:49;;;;;;;20.60;13.52;;;;;;;;;;4990757;28;21412;-59
2023/08/25 06:56:14;;;;;;;16.63;13.50;;;;;;;;;;4990654;28;20048;-58
2023/08/25 06:58:40;;;;;;;17.87;14.20;;;;;;;;;;4989745;28;20133;-57
2023/08/25 07:01:05;;;;;;;18.25;14.43;;;;;;;;;;5006840;28;20316;-59
2023/08/25 07:03:30;;;;;;;16.67;13.90;;;;;;;;;;4988858;28;20144;-58
2023/08/25 07:05:56;;;;;;;19.03;14.73;;;;;;;;;;4989723;28;20347;-58
2023/08/25 07:08:21;;;;;;;14.70;12.45;;;;;;;;;;4990268;28;20106;-59
2023/08/25 07:10:46;;;;;;;20.40;13.68;;;;;;;;;;4989598;28;20528;-57
2023/08/25 07:13:11;;;;;;;16.20;12.83;;;;;;;;;;4977372;28;20582;-58
2023/08/25 07:15:37;;;;;;;19.53;12.50;;;;;;;;;;4989941;28;20441;-58
2023/08/25 07:18:03;;;;;;;15.73;12.65;;;;;;;;;;4988155;28;20128;-58
2023/08/25 07:20:29;;;;;;;17.17;12.15;;;;;;;;;;4988554;28;20027;-60
2023/08/25 07:22:54;;;;;;;16.52;12.00;;;;;;;;;;4988235;28;20044;-60
2023/08/25 07:25:19;;;;;;;17.30;12.75;;;;;;;;;;4989281;28;20132;-58
2023/08/25 07:27:45;;;;;;;15.17;11.67;;;;;;;;;;4974889;28;20041;-59
2023/08/25 07:30:10;;;;;;;15.37;11.80;;;;;;;;;;4989244;28;20315;-58
2023/08/25 07:32:35;;;;;;;14.27;11.20;;;;;;;;;;4969128;28;20305;-59
2023/08/25 07:35:01;;;;;;;15.87;11.57;;;;;;;;;;4987404;28;20508;-58
2023/08/25 07:37:26;;;;;;;14.68;11.05;;;;;;;;;;4975602;28;20362;-56
2023/08/25 07:39:52;;;;;;;14.07;10.65;;;;;;;;;;4983479;28;20038;-57
2023/08/25 07:42:17;;;;;;;14.55;10.20;;;;;;;;;;4985324;28;20053;-57
2023/08/25 07:44:43;;;;;;;14.47;10.60;;;;;;;;;;4971521;28;20030;-56
2023/08/25 07:47:08;;;;;;;12.33;10.03;;;;;;;;;;5002434;28;20038;-58
2023/08/25 07:49:33;;;;;;;11.38;9.90;;;;;;;;;;4967611;28;20042;-58
2023/08/25 07:51:58;;;;;;;14.45;10.18;;;;;;;;;;5004702;28;20120;-59
2023/08/25 07:54:24;;;;;;;11.80;10.17;;;;;;;;;;5022710;28;20133;-57
2023/08/25 07:56:49;;;;;;;12.93;9.80;;;;;;;;;;5003458;28;20129;-56
2023/08/25 07:59:15;;;;;;;11.97;9.93;;;;;;;;;;5007073;28;20045;-57
2023/08/25 08:01:40;;;;;;;13.45;10.52;;;;;;;;;;4988178;28;20305;-57
2023/08/25 08:04:07;;;;;;;13.52;9.88;;;;;;;;;;4997935;28;20121;-58
2023/08/25 08:06:32;;;;;;;13.05;9.80;;;;;;;;;;5005881;28;20576;-57
2023/08/25 08:08:57;;;;;;;12.00;9.80;;;;;;;;;;5021308;28;20058;-59
2023/08/25 08:11:23;;;;;;;10.77;8.60;;;;;;;;;;4998273;28;20041;-58
2023/08/25 08:13:48;;;;;;;13.27;9.33;;;;;;;;;;4991383;28;20292;-56
2023/08/25 08:16:13;;;;;;;12.60;8.93;;;;;;;;;;4991079;28;20352;-56
2023/08/25 08:18:39;;;;;;;12.05;8.88;;;;;;;;;;5016004;28;20312;-57
2023/08/25 08:21:04;;;;;;;11.88;8.93;;;;;;;;;;5018911;28;20438;-59
2023/08/25 08:23:29;;;;;;;10.43;8.70;;;;;;;;;;5027520;28;20729;-58
2023/08/25 08:25:55;;;;;;;11.23;9.20;;;;;;;;;;5026438;28;20295;-58
2023/08/25 08:28:20;;;;;;;12.35;8.75;;;;;;;;;;4991111;28;20288;-58
2023/08/25 08:30:45;;;;;;;11.07;8.50;;;;;;;;;;4993603;28;20041;-58
2023/08/25 08:33:11;;;;;;;10.85;8.65;;;;;;;;;;5007018;28;20753;-58
2023/08/25 08:35:37;;;;;;;11.93;8.53;;;;;;;;;;5007660;28;20049;-57
2023/08/25 08:38:03;;;;;;;10.80;8.27;;;;;;;;;;4989235;28;20050;-58
2023/08/25 08:40:31;;;;;;;8.52;7.63;;;;;;;;;;4993426;28;20033;-58
2023/08/25 08:42:56;;;;;;;9.00;7.93;;;;;;;;;;5026458;28;20100;-59
2023/08/25 08:45:22;;;;;;;11.57;7.88;;;;;;;;;;5013499;28;20121;-58
2023/08/25 08:47:49;;;;;;;11.57;8.23;;;;;;;;;;5007189;28;20828;-58
2023/08/25 08:50:14;;;;;;;9.80;7.82;;;;;;;;;;4989248;28;20041;-57
2023/08/25 08:52:39;;;;;;;10.10;7.17;;;;;;;;;;4989606;28;20030;-56
2023/08/25 08:55:09;;;;;;;9.10;7.07;;;;;;;;;;5005538;28;20030;-58
2023/08/25 08:57:35;;;;;;;10.70;7.10;;;;;;;;;;5006654;28;20022;-58
2023/08/25 09:00:03;;;;;;;8.85;6.70;;;;;;;;;;4994178;28;20053;-60
2023/08/25 09:02:29;;;;;;;8.65;6.75;;;;;;;;;;4985394;28;20132;-56
2023/08/25 09:04:57;;;;;;;9.88;6.82;;;;;;;;;;5014518;28;20703;-58
2023/08/25 09:07:22;;;;;;;9.10;6.78;;;;;;;;;;5006883;28;20064;-58
2023/08/25 09:09:50;;;;;;;8.90;6.60;;;;;;;;;;5007187;28;20058;-59
2023/08/25 09:12:17;;;;;;;9.57;6.80;;;;;;;;;;4993289;28;20544;-59
2023/08/25 09:14:42;;;;;;;8.40;6.90;;;;;;;;;;4992916;28;20061;-57
2023/08/25 09:17:08;;;;;;;9.05;6.95;;;;;;;;;;4993303;28;20424;-58
2023/08/25 09:19:33;;;;;;;9.67;6.40;;;;;;;;;;5008491;28;20055;-58
2023/08/25 09:21:59;;;;;;;9.45;6.47;;;;;;;;;;4999216;28;20050;-58
2023/08/25 09:24:24;;;;;;;7.88;6.38;;;;;;;;;;4989989;28;20506;-57
2023/08/25 09:26:49;;;;;;;7.28;6.07;;;;;;;;;;4994030;28;20038;-59
2023/08/25 09:29:15;;;;;;;7.15;5.82;;;;;;;;;;5009008;28;20577;-59
2023/08/25 09:31:40;;;;;;;8.02;6.78;;;;;;;;;;5005303;28;20046;-59
2023/08/25 09:34:06;;;;;;;7.78;5.95;;;;;;;;;;4981889;28;20043;-59
2023/08/25 09:36:31;;;;;;;7.00;6.13;;;;;;;;;;4991831;28;20073;-58
2023/08/25 09:38:57;;;;;;;9.25;6.70;;;;;;;;;;4996976;28;20084;-57
2023/08/25 09:41:23;;;;;;;9.05;6.25;;;;;;;;;;5009214;28;20077;-57
2023/08/25 09:43:48;;;;;;;8.85;6.45;;;;;;;;;;5011091;28;20034;-58
2023/08/25 09:46:14;;;;;;;8.47;6.43;;;;;;;;;;5012403;28;20034;-56
2023/08/25 09:48:39;;;;;;;7.87;6.03;;;;;;;;;;4997628;28;20113;-57
2023/08/25 09:51:05;;;;;;;7.93;5.75;;;;;;;;;;4992631;28;20304;-58
2023/08/25 09:53:33;;;;;;;8.75;6.75;;;;;;;;;;5009191;28;20141;-61
2023/08/25 09:56:02;;;;;;;7.90;5.80;;;;;;;;;;4993459;28;20042;-59
2023/08/25 09:58:28;;;;;;;6.90;5.68;;;;;;;;;;4987635;28;20492;-58
2023/08/25 10:00:53;;;;;;;8.45;5.75;;;;;;;;;;5005075;28;20057;-58
2023/08/25 10:03:18;;;;;;;7.73;5.47;;;;;;;;;;5003541;28;20037;-58
2023/08/25 10:05:43;;;;;;;8.07;5.60;;;;;;;;;;4991236;28;20285;-59
2023/08/25 10:08:09;;;;;;;7.93;5.78;;;;;;;;;;4980765;28;20813;-58
2023/08/25 10:10:34;;;;;;;9.20;5.90;;;;;;;;;;5006259;28;20038;-59
2023/08/25 10:13:00;;;;;;;7.78;6.05;;;;;;;;;;4972703;28;20390;-57
2023/08/25 10:15:30;;;;;;;7.27;5.27;;;;;;;;;;5004718;28;20514;-59
2023/08/25 10:17:57;;;;;;;6.72;5.60;;;;;;;;;;4992805;28;20041;-59
2023/08/25 10:20:22;;;;;;;8.35;5.80;;;;;;;;;;4971715;28;20116;-60
2023/08/25 10:22:49;;;;;;;6.95;5.65;;;;;;;;;;4989456;28;20034;-59
2023/08/25 10:25:14;;;;;;;9.45;6.10;;;;;;;;;;5004781;28;20376;-59
2023/08/25 10:27:39;;;;;;;7.60;5.37;;;;;;;;;;4988032;28;20164;-56
2023/08/25 10:30:06;;;;;;;7.63;5.63;;;;;;;;;;4961350;28;20362;-58
2023/08/25 10:32:54;;;;;;;7.53;5.35;;;;;;;;;;4991170;28;20293;-59
2023/08/25 10:35:43;;;;;;;7.28;5.80;;;;;;;;;;4980216;28;20042;-59
2023/08/25 10:38:27;;;;;;;6.63;5.40;;;;;;;;;;4988301;28;20037;-60
2023/08/25 10:40:53;;;;;;;10.00;5.97;;;;;;;;;;4988667;28;20136;-62
2023/08/25 10:43:30;;;;;;;8.63;6.05;;;;;;;;;;5006481;28;20527;-58
2023/08/25 10:45:55;;;;;;;8.48;5.60;;;;;;;;;;4989909;28;20044;-61
2023/08/25 10:48:21;;;;;;;6.87;5.33;;;;;;;;;;5005602;28;20030;-59
2023/08/25 10:50:47;;;;;;;8.77;4.93;;;;;;;;;;5008130;28;20041;-58
2023/08/25 10:53:30;;;;;;;7.47;5.43;;;;;;;;;;4990949;28;20506;-57
2023/08/25 10:55:56;;;;;;;7.53;5.20;;;;;;;;;;4989981;28;20045;-58
2023/08/25 10:58:21;;;;;;;6.43;5.07;;;;;;;;;;4991917;28;20916;-58
2023/08/25 11:00:48;;;;;;;7.07;4.83;;;;;;;;;;4988506;28;20041;-56
2023/08/25 11:03:14;;;;;;;7.93;5.30;;;;;;;;;;4988073;28;20116;-57
2023/08/25 11:05:41;;;;;;;6.97;5.10;;;;;;;;;;4989512;28;20081;-56
2023/08/25 11:08:25;;;;;;;7.25;4.80;;;;;;;;;;4988325;28;20105;-57
2023/08/25 11:11:10;;;;;;;7.15;4.63;;;;;;;;;;4990188;28;20181;-59
2023/08/25 11:13:36;;;;;;;6.30;4.30;;;;;;;;;;4988117;28;20178;-59
2023/08/25 11:16:04;;;;;;;6.38;4.40;;;;;;;;;;5004827;28;20181;-58
2023/08/25 11:18:30;;;;;;;5.68;4.70;;;;;;;;;;4989121;28;20041;-57
2023/08/25 11:20:55;;;;;;;5.40;4.67;;;;;;;;;;5003372;28;20046;-59
2023/08/25 11:23:20;;;;;;;6.50;4.87;;;;;;;;;;5002328;28;20325;-57
2023/08/25 11:25:45;;;;;;;6.53;4.37;;;;;;;;;;4987519;28;20057;-59
2023/08/25 11:28:12;;;;;;;5.63;4.27;;;;;;;;;;4987556;28;20046;-58
2023/08/25 11:30:37;;;;;;;5.75;4.40;;;;;;;;;;4970570;28;20285;-57
2023/08/25 11:33:03;;;;;;;5.65;4.32;;;;;;;;;;4986440;28;20052;-59
2023/08/25 11:35:28;;;;;;;6.18;4.55;;;;;;;;;;4969632;28;20030;-58
2023/08/25 11:37:53;;;;;;;9.60;4.00;;;;;;;;;;5004313;28;20027;-57
2023/08/25 11:40:18;;;;;;;7.23;4.10;;;;;;;;;;4989113;28;21275;-58
2023/08/25 11:42:44;;;;;;;8.30;4.40;;;;;;;;;;4987792;28;20438;-57
2023/08/25 11:45:09;;;;;;;6.00;4.35;;;;;;;;;;4986269;28;20293;-58
2023/08/25 11:47:35;;;;;;;5.72;4.15;;;;;;;;;;4974572;28;20045;-57
2023/08/25 11:50:01;;;;;;;4.32;3.75;;;;;;;;;;5010268;28;20088;-58
2023/08/25 11:52:27;;;;;;;5.13;4.00;;;;;;;;;;5003131;28;20041;-57
2023/08/25 11:54:52;;;;;;;5.87;4.03;;;;;;;;;;5003900;28;20046;-57
2023/08/25 11:57:18;;;;;;;5.32;3.70;;;;;;;;;;4986435;28;20285;-57
2023/08/25 11:59:47;;;;;;;5.75;3.78;;;;;;;;;;5003798;28;20042;-59
2023/08/25 12:02:16;;;;;;;7.00;4.13;;;;;;;;;;5021681;28;20053;-58
2023/08/25 12:04:50;;;;;;;5.87;4.03;;;;;;;;;;5005980;28;20120;-59
2023/08/25 12:07:20;;;;;;;8.43;3.88;;;;;;;;;;5005919;28;20072;-57
2023/08/25 12:09:45;;;;;;;6.57;3.83;;;;;;;;;;5024088;28;20049;-57
2023/08/25 12:12:10;;;;;;;7.03;3.97;;;;;;;;;;4997341;28;20049;-58
2023/08/25 12:14:37;;;;;;;4.50;3.73;;;;;;;;;;5023719;28;20095;-59
2023/08/25 12:17:02;;;;;;;6.80;3.88;;;;;;;;;;4989023;28;20468;-58
2023/08/25 12:19:27;;;;;;;5.30;3.63;;;;;;;;;;5024801;28;20491;-58
2023/08/25 12:21:53;;;;;;;5.80;3.63;;;;;;;;;;5017878;28;20458;-57
2023/08/25 12:24:18;;;;;;;4.55;3.55;;;;;;;;;;4986105;28;20285;-57
2023/08/25 12:26:43;;;;;;;5.00;3.40;;;;;;;;;;5003760;28;20046;-59
2023/08/25 12:29:09;;;;;;;6.40;3.70;;;;;;;;;;5003594;28;20281;-59
2023/08/25 12:31:34;;;;;;;5.27;3.53;;;;;;;;;;5002280;28;20314;-58
2023/08/25 12:33:59;;;;;;;5.17;3.57;;;;;;;;;;5018639;28;20026;-59
2023/08/25 12:36:24;;;;;;;6.40;3.67;;;;;;;;;;5023458;28;20304;-58
2023/08/25 12:38:50;;;;;;;6.23;3.47;;;;;;;;;;5023513;28;20037;-59
2023/08/25 12:41:15;;;;;;;6.07;3.87;;;;;;;;;;5022885;28;20061;-59
2023/08/25 12:43:40;;;;;;;5.07;3.33;;;;;;;;;;4995727;28;20621;-59
2023/08/25 12:46:05;;;;;;;3.93;3.27;;;;;;;;;;4985803;28;20440;-59
2023/08/25 12:48:31;;;;;;;5.60;3.47;;;;;;;;;;4985874;28;20121;-58
2023/08/25 12:50:57;;;;;;;6.75;3.78;;;;;;;;;;5003175;28;20492;-58
2023/08/25 12:53:22;;;;;;;4.97;3.30;;;;;;;;;;5002878;28;20172;-58
2023/08/25 12:55:47;;;;;;;3.87;3.27;;;;;;;;;;5003705;28;20045;-58
2023/08/25 12:58:12;;;;;;;4.60;3.43;;;;;;;;;;4987734;28;20836;-58
2023/08/25 13:00:38;;;;;;;6.27;3.70;;;;;;;;;;4986733;28;20347;-58
2023/08/25 13:03:03;;;;;;;4.80;3.30;;;;;;;;;;5017023;28;20331;-57
2023/08/25 13:05:29;;;;;;;4.30;3.20;;;;;;;;;;5025333;28;20033;-58
2023/08/25 13:07:54;;;;;;;6.10;3.33;;;;;;;;;;5011140;28;20043;-57
2023/08/25 13:10:20;;;;;;;5.93;3.47;;;;;;;;;;4993833;28;20030;-59
2023/08/25 13:12:45;;;;;;;5.60;3.40;;;;;;;;;;4997390;28;20033;-57
2023/08/25 13:15:11;;;;;;;4.97;3.50;;;;;;;;;;4991816;28;20297;-58
2023/08/25 13:17:36;;;;;;;4.22;3.40;;;;;;;;;;5019050;28;20360;-60
2023/08/25 13:20:02;;;;;;;4.83;3.50;;;;;;;;;;5005518;28;20129;-58
2023/08/25 13:22:28;;;;;;;4.18;3.05;;;;;;;;;;5019233;28;20121;-58
2023/08/25 13:24:53;;;;;;;4.90;3.40;;;;;;;;;;5008094;28;20484;-58
2023/08/25 13:27:18;;;;;;;4.13;3.10;;;;;;;;;;5006417;28;20042;-57
2023/08/25 13:29:44;;;;;;;5.55;3.22;;;;;;;;;;5006462;28;20038;-57
2023/08/25 13:32:09;;;;;;;5.57;3.10;;;;;;;;;;5009728;28;20037;-58
2023/08/25 13:34:34;;;;;;;4.38;3.10;;;;;;;;;;5025691;28;20136;-57
2023/08/25 13:36:59;;;;;;;4.30;3.20;;;;;;;;;;5007062;28;20635;-57
2023/08/25 13:39:25;;;;;;;5.93;3.40;;;;;;;;;;5025505;28;20041;-57
2023/08/25 13:41:50;;;;;;;5.70;3.50;;;;;;;;;;4991479;28;20310;-57
2023/08/25 13:44:15;;;;;;;4.70;3.30;;;;;;;;;;5025314;28;20092;-58
2023/08/25 13:46:40;;;;;;;4.80;3.20;;;;;;;;;;5007581;28;21218;-59
2023/08/25 13:49:06;;;;;;;5.00;3.33;;;;;;;;;;5007653;28;20057;-58
2023/08/25 13:51:31;;;;;;;4.20;3.10;;;;;;;;;;5025955;28;20276;-58
2023/08/25 13:53:57;;;;;;;4.50;3.20;;;;;;;;;;4996416;28;20511;-58
2023/08/25 13:56:23;;;;;;;4.50;3.13;;;;;;;;;;5005953;28;20508;-59
2023/08/25 13:58:48;;;;;;;4.47;3.25;;;;;;;;;;5025856;28;20060;-57
2023/08/25 14:01:15;;;;;;;6.53;3.00;;;;;;;;;;5013022;28;20127;-59
2023/08/25 14:03:40;;;;;;;5.18;3.30;;;;;;;;;;5032846;28;20308;-57
2023/08/25 14:06:05;;;;;;;3.83;2.78;;;;;;;;;;5007109;28;20083;-57
2023/08/25 14:08:30;;;;;;;5.97;3.13;;;;;;;;;;4983667;28;20436;-58
2023/08/25 14:10:56;;;;;;;4.17;3.13;;;;;;;;;;4976014;28;20140;-57
2023/08/25 14:13:21;;;;;;;4.68;3.45;;;;;;;;;;4975412;28;20456;-58
2023/08/25 14:15:46;;;;;;;3.87;3.00;;;;;;;;;;4993691;28;20507;-58
2023/08/25 14:18:11;;;;;;;4.77;2.90;;;;;;;;;;5007611;28;20573;-59
2023/08/25 14:20:43;;;;;;;4.70;3.23;;;;;;;;;;4992683;28;20323;-59